SMN Airport (Lemhi County) Information

FAA: SMN - ICAO: KSMN

SMN Airport Location

State Idaho
County Lemhi
City Salmon
SMN Airport is 4 miles south of Salmon, ID.
Latitude 45-07-23.8000N
Longitude 113-52-53.2000W
Elevation 4,044ft

KSMN Airport METARs

METAR KSMN 302256Z AUTO 01004KT 10SM OVC100 18/02 A3008 RMK AO2 SLP875 T01780022
Altimeter 30.08"
Temperature 17.8°C (64.0°F)
Wind 10° at 4KT
Clouds overcast at 10,000ft
Visibility 10.0mi
Time observed: 2022-09-30T22:56:00Z

SMN Airport Details

Status Operational
Activation April 1940
Ownership Public
Usage Public
Chart GREAT FALLS
ATC on-site No
Beacon schedule sunset-sunrise
Beacon color clear green

SMN Airport Contacts

Owner LEMHI CO
Owner address 206 COURTHOUSE DRIVE, SALMON, ID 83467
Owner phone 208-756-2815
Manager DALE PRITCHARD
Manager address P O BOX 264, ST MARIES, ID 83861
Manager phone 208-582-0941

SMN Airport (Lemhi County) Radio Frequencies

SMN (Airport) Radio Frequencies

UNICOM 122.8
Common traffic advisory frequency (CTAF) 122.8